Time;durP1;ratioP1;P1;durP2;ratioP2;P2;SDS_P1;SDS_P2;PMS_P1;PMS_P2;Temp;Humidity;BMP_temperature;BMP_pressure;BME280_temperature;BME280_humidity;BME280_pressure;Samples;Min_cycle;Max_cycle;Signal;HPM_P1;HPM_P2
2021/10/09 00:06:29;;;;;;;44.27;14.35;;;;;;;6.72;71.72;102423.99;21376659;81;99245;-85
2021/10/09 00:36:30;;;;;;;30.57;13.00;;;;;;;6.64;72.89;102418.41;21305643;81;122480;-85
2021/10/09 01:06:31;;;;;;;27.30;11.00;;;;;;;6.49;73.39;102403.10;21135696;82;99373;-83
2021/10/09 01:36:36;;;;;;;24.12;10.38;;;;;;;6.32;74.31;102414.38;21094769;81;99248;-84
2021/10/09 02:06:36;;;;;;;19.50;9.43;;;;;;;6.13;74.98;102416.34;21104662;82;99254;-84
2021/10/09 02:36:37;;;;;;;19.80;8.83;;;;;;;5.83;75.69;102409.45;21134066;81;100815;-84
2021/10/09 03:06:38;;;;;;;22.60;9.03;;;;;;;5.75;76.25;102413.37;21164341;81;99276;-84
2021/10/09 03:36:39;;;;;;;21.40;9.48;;;;;;;5.59;76.34;102410.61;21212548;81;99026;-84
2021/10/09 04:06:40;;;;;;;20.30;9.10;;;;;;;5.41;76.41;102422.35;21423536;80;99343;-83
2021/10/09 04:36:40;;;;;;;21.43;9.50;;;;;;;5.37;76.86;102420.77;21398369;81;99263;-84
2021/10/09 05:06:41;;;;;;;21.77;9.60;;;;;;;5.55;76.98;102436.88;21273515;80;99226;-84
2021/10/09 05:36:42;;;;;;;18.43;9.07;;;;;;;5.27;77.68;102454.20;21106292;80;99423;-84
2021/10/09 07:07:08;;;;;;;23.33;11.70;;;;;;;5.29;77.80;102506.04;21134349;82;99608;-85
2021/10/09 07:37:08;;;;;;;21.37;10.03;;;;;;;5.87;77.60;102527.16;21153914;81;99347;-81
2021/10/09 08:07:09;;;;;;;18.20;9.57;;;;;;;7.01;75.48;102550.47;21233020;81;99522;-81
2021/10/09 10:07:55;;;;;;;9.87;4.43;;;;;;;17.53;53.50;102496.27;21433377;81;101835;-86
2021/10/09 10:38:13;;;;;;;14.10;5.40;;;;;;;18.23;46.79;102496.69;21441531;80;100052;-84
2021/10/09 11:08:15;;;;;;;11.60;5.97;;;;;;;19.31;44.73;102499.88;21477468;80;99732;-84
2021/10/09 11:38:30;;;;;;;10.45;5.20;;;;;;;18.72;41.92;102484.73;21415287;80;99457;-85
2021/10/09 12:08:33;;;;;;;9.55;5.03;;;;;;;17.92;42.03;102462.23;21425112;81;99482;-85
2021/10/09 12:38:40;;;;;;;9.47;5.23;;;;;;;17.31;41.66;102440.01;21371209;81;99175;-84
2021/10/09 13:08:40;;;;;;;9.23;5.08;;;;;;;16.60;41.44;102419.94;21156922;80;99412;-86
2021/10/09 13:38:41;;;;;;;9.73;5.33;;;;;;;15.93;41.11;102394.20;21015645;81;99487;-83
2021/10/09 14:08:42;;;;;;;13.95;5.40;;;;;;;15.55;43.07;102366.98;20699303;82;99363;-83
2021/10/09 14:38:44;;;;;;;9.07;4.83;;;;;;;14.71;44.88;102346.97;20796812;82;99363;-86
2021/10/09 15:39:04;;;;;;;13.13;6.70;;;;;;;13.64;47.24;102326.45;21191072;81;86075;-84
2021/10/09 16:09:04;;;;;;;;;;;;;;;12.84;48.65;102316.45;21376327;80;99339;-85
2021/10/09 16:39:06;;;;;;;15.27;7.90;;;;;;;11.99;52.50;102309.23;21238690;81;85331;-84
2021/10/09 17:09:07;;;;;;;16.35;8.83;;;;;;;11.06;55.29;102312.80;20701899;83;99733;-82
2021/10/09 17:39:08;;;;;;;20.12;10.45;;;;;;;10.35;57.35;102309.70;20840863;81;99589;-83
2021/10/09 18:09:09;;;;;;;19.50;10.07;;;;;;;9.85;58.60;102306.73;21303180;80;99567;-84
2021/10/09 18:39:10;;;;;;;19.17;8.97;;;;;;;9.42;60.22;102317.51;21320205;81;104875;-82
2021/10/09 19:09:11;;;;;;;19.30;10.17;;;;;;;8.94;61.33;102310.77;21401802;81;99217;-85
2021/10/09 19:39:11;;;;;;;21.82;11.57;;;;;;;8.76;63.61;102306.38;21319822;80;124071;-84
2021/10/09 20:09:16;;;;;;;35.33;16.17;;;;;;;8.28;64.09;102315.16;21138913;81;99657;-84
2021/10/09 20:39:16;;;;;;;23.30;13.13;;;;;;;8.02;65.20;102316.92;21131269;80;99611;-84
2021/10/09 21:09:23;;;;;;;28.12;14.63;;;;;;;7.82;66.76;102317.47;21152537;82;99534;-87
2021/10/09 21:39:22;;;;;;;28.97;15.30;;;;;;;7.61;68.16;102310.87;21163338;82;99221;-86
2021/10/09 22:39:42;;;;;;;27.67;15.27;;;;;;;7.08;70.33;102274.33;21222175;80;99400;-86
2021/10/09 23:09:43;;;;;;;27.87;16.05;;;;;;;6.78;70.75;102268.73;21486584;79;99158;-86
2021/10/09 23:39:43;;;;;;;32.67;15.90;;;;;;;6.68;72.40;102262.11;21329557;80;99279;-86
